Time;durP1;ratioP1;P1;durP2;ratioP2;P2;SDS_P1;SDS_P2;PMS_P1;PMS_P2;Temp;Humidity;BMP_temperature;BMP_pressure;BME280_temperature;BME280_humidity;BME280_pressure;Samples;Min_cycle;Max_cycle;Signal;HPM_P1;HPM_P2
2023/01/25 00:01:37;;;;;;;2.83;1.90;;;;;;;;;;5046108;28;20842;-68
2023/01/25 00:04:02;;;;;;;3.50;1.93;;;;;;;;;;5038574;28;20093;-66
2023/01/25 00:06:28;;;;;;;3.00;1.80;;;;;;;;;;5039622;28;20091;-66
2023/01/25 00:08:53;;;;;;;2.72;1.98;;;;;;;;;;5045224;28;20584;-69
2023/01/25 00:11:19;;;;;;;3.10;1.90;;;;;;;;;;5027852;28;20037;-67
2023/01/25 00:13:44;;;;;;;3.35;1.98;;;;;;;;;;5045745;28;20279;-70
2023/01/25 00:16:09;;;;;;;3.47;2.00;;;;;;;;;;5046152;28;20517;-71
2023/01/25 00:18:35;;;;;;;3.37;1.90;;;;;;;;;;5046012;28;20039;-71
2023/01/25 00:21:10;;;;;;;2.67;1.77;;;;;;;;;;5027672;28;20311;-71
2023/01/25 00:23:35;;;;;;;3.47;2.00;;;;;;;;;;5043987;28;20795;-70
2023/01/25 00:26:00;;;;;;;3.13;1.90;;;;;;;;;;5043714;28;20133;-72
2023/01/25 00:28:26;;;;;;;2.50;1.80;;;;;;;;;;5045100;28;20298;-72
2023/01/25 00:30:51;;;;;;;2.70;1.70;;;;;;;;;;5044873;28;20283;-66
2023/01/25 00:33:16;;;;;;;3.00;1.90;;;;;;;;;;5040462;28;20303;-69
2023/01/25 00:35:42;;;;;;;2.40;1.60;;;;;;;;;;5045895;28;20368;-69
2023/01/25 00:38:12;;;;;;;2.60;1.70;;;;;;;;;;5045306;28;20471;-64
2023/01/25 00:40:38;;;;;;;3.08;2.05;;;;;;;;;;5027302;28;20033;-71
2023/01/25 00:43:03;;;;;;;3.20;1.77;;;;;;;;;;5044448;28;20354;-69
2023/01/25 00:45:28;;;;;;;3.72;2.00;;;;;;;;;;5046054;28;20294;-66
2023/01/25 00:47:54;;;;;;;2.70;1.77;;;;;;;;;;5045473;28;20106;-68
2023/01/25 00:50:20;;;;;;;2.38;1.60;;;;;;;;;;5044029;28;20283;-71
2023/01/25 00:52:45;;;;;;;3.10;1.93;;;;;;;;;;5045033;28;20040;-67
2023/01/25 00:55:10;;;;;;;2.90;1.83;;;;;;;;;;5027242;28;20033;-68
2023/01/25 00:57:35;;;;;;;2.43;1.60;;;;;;;;;;5045380;28;20788;-71
2023/01/25 01:00:01;;;;;;;2.22;1.60;;;;;;;;;;5045367;28;20267;-66
2023/01/25 01:02:26;;;;;;;2.77;1.70;;;;;;;;;;5045610;28;20117;-68
2023/01/25 01:04:51;;;;;;;2.77;1.80;;;;;;;;;;5032932;28;20415;-69
2023/01/25 01:07:17;;;;;;;2.63;1.75;;;;;;;;;;5038606;28;20325;-71
2023/01/25 01:09:42;;;;;;;2.92;2.00;;;;;;;;;;5045519;28;20076;-72
2023/01/25 01:12:08;;;;;;;2.10;1.48;;;;;;;;;;5045171;28;20079;-70
2023/01/25 01:14:33;;;;;;;2.65;1.65;;;;;;;;;;5043478;28;20476;-65
2023/01/25 01:16:58;;;;;;;2.57;1.67;;;;;;;;;;5045202;28;20041;-66
2023/01/25 01:19:23;;;;;;;2.93;2.03;;;;;;;;;;5044820;28;20743;-65
2023/01/25 01:21:49;;;;;;;2.28;1.63;;;;;;;;;;5044306;28;20782;-68
2023/01/25 01:24:14;;;;;;;2.50;1.70;;;;;;;;;;5044716;28;20064;-68
2023/01/25 01:26:39;;;;;;;2.90;1.80;;;;;;;;;;5045521;28;20083;-70
2023/01/25 01:29:04;;;;;;;2.63;1.70;;;;;;;;;;5044301;28;20287;-71
2023/01/25 01:31:30;;;;;;;2.20;1.60;;;;;;;;;;5044892;28;20798;-70
2023/01/25 01:33:55;;;;;;;2.25;1.55;;;;;;;;;;5043268;28;20033;-62
2023/01/25 01:36:21;;;;;;;2.50;1.55;;;;;;;;;;5026870;28;20068;-66
2023/01/25 01:38:46;;;;;;;1.95;1.38;;;;;;;;;;5026614;28;20115;-67
2023/01/25 01:41:11;;;;;;;2.47;1.70;;;;;;;;;;5043244;28;20342;-70
2023/01/25 01:43:37;;;;;;;3.20;2.13;;;;;;;;;;5044956;28;20040;-73
2023/01/25 01:46:03;;;;;;;5.72;1.52;;;;;;;;;;5044715;28;20344;-71
2023/01/25 01:48:28;;;;;;;2.50;1.60;;;;;;;;;;5044645;28;20040;-70
2023/01/25 01:50:54;;;;;;;2.07;1.43;;;;;;;;;;5039921;28;20033;-67
2023/01/25 01:53:20;;;;;;;2.53;1.42;;;;;;;;;;5026475;28;20576;-59
2023/01/25 01:55:45;;;;;;;2.33;1.58;;;;;;;;;;5018434;28;20136;-67
2023/01/25 01:58:10;;;;;;;2.60;1.65;;;;;;;;;;5030242;28;20025;-62
2023/01/25 02:00:37;;;;;;;2.33;1.70;;;;;;;;;;5047924;28;20499;-70
2023/01/25 02:03:02;;;;;;;2.45;1.60;;;;;;;;;;5048893;28;20287;-69
2023/01/25 02:05:27;;;;;;;2.63;1.85;;;;;;;;;;5025581;28;20037;-71
2023/01/25 02:07:53;;;;;;;2.55;1.77;;;;;;;;;;5042751;28;20116;-71
2023/01/25 02:10:18;;;;;;;2.47;1.42;;;;;;;;;;5029689;28;20444;-71
2023/01/25 02:12:44;;;;;;;2.30;1.48;;;;;;;;;;5030364;28;20381;-64
2023/01/25 02:15:09;;;;;;;2.47;1.58;;;;;;;;;;5047413;28;20043;-70
2023/01/25 02:17:35;;;;;;;2.30;1.40;;;;;;;;;;5048275;28;20041;-71
2023/01/25 02:20:07;;;;;;;2.00;1.40;;;;;;;;;;5047052;28;20497;-71
2023/01/25 02:22:35;;;;;;;2.30;1.60;;;;;;;;;;5048351;28;20063;-68
2023/01/25 02:25:05;;;;;;;2.38;1.42;;;;;;;;;;5047784;28;20056;-68
2023/01/25 02:27:31;;;;;;;2.47;1.60;;;;;;;;;;5046970;28;20037;-69
2023/01/25 02:29:56;;;;;;;2.42;1.40;;;;;;;;;;5013568;28;20037;-68
2023/01/25 02:32:21;;;;;;;2.60;1.42;;;;;;;;;;5013187;28;20099;-70
2023/01/25 02:34:47;;;;;;;2.60;1.50;;;;;;;;;;5047225;28;20086;-71
2023/01/25 02:37:12;;;;;;;2.13;1.30;;;;;;;;;;5046159;28;20360;-68
2023/01/25 02:39:38;;;;;;;2.70;1.50;;;;;;;;;;5020522;28;20323;-72
2023/01/25 02:42:03;;;;;;;2.72;1.60;;;;;;;;;;5013557;28;20033;-68
2023/01/25 02:44:29;;;;;;;2.33;1.50;;;;;;;;;;5050069;28;20210;-71
2023/01/25 02:46:54;;;;;;;1.95;1.50;;;;;;;;;;5045987;28;20032;-69
2023/01/25 02:49:20;;;;;;;2.37;1.60;;;;;;;;;;5048367;28;20508;-65
2023/01/25 02:51:46;;;;;;;2.50;1.40;;;;;;;;;;5047124;28;20609;-60
2023/01/25 02:54:11;;;;;;;1.80;1.40;;;;;;;;;;5047950;28;20318;-69
2023/01/25 02:56:37;;;;;;;1.88;1.30;;;;;;;;;;5012550;28;20041;-63
2023/01/25 02:59:05;;;;;;;2.17;1.43;;;;;;;;;;5047347;28;20453;-61
2023/01/25 03:01:33;;;;;;;1.90;1.30;;;;;;;;;;5046160;28;20336;-65
2023/01/25 03:03:59;;;;;;;2.05;1.40;;;;;;;;;;5047378;28;20102;-67
2023/01/25 03:06:24;;;;;;;1.80;1.30;;;;;;;;;;5036569;28;20061;-66
2023/01/25 03:08:49;;;;;;;2.30;1.30;;;;;;;;;;5028480;28;20033;-71
2023/01/25 03:11:14;;;;;;;1.83;1.40;;;;;;;;;;5040542;28;20020;-71
2023/01/25 03:13:40;;;;;;;1.63;1.20;;;;;;;;;;5028917;28;20255;-71
2023/01/25 03:16:09;;;;;;;2.42;1.30;;;;;;;;;;5047529;28;20386;-67
2023/01/25 03:18:34;;;;;;;2.15;1.30;;;;;;;;;;5028937;28;20131;-60
2023/01/25 03:21:03;;;;;;;2.15;1.48;;;;;;;;;;5048923;28;21164;-71
2023/01/25 03:23:28;;;;;;;2.78;1.58;;;;;;;;;;5050876;28;20506;-69
2023/01/25 03:25:53;;;;;;;2.00;1.20;;;;;;;;;;5029269;28;20107;-71
2023/01/25 03:28:18;;;;;;;2.30;1.20;;;;;;;;;;5046614;28;20299;-71
2023/01/25 03:30:44;;;;;;;2.08;1.38;;;;;;;;;;5024875;28;20275;-67
2023/01/25 03:33:09;;;;;;;2.03;1.30;;;;;;;;;;5046660;28;20064;-68
2023/01/25 03:35:34;;;;;;;1.55;1.30;;;;;;;;;;5028915;28;20037;-70
2023/01/25 03:38:00;;;;;;;2.15;1.45;;;;;;;;;;5031868;28;20020;-71
2023/01/25 03:40:25;;;;;;;1.90;1.20;;;;;;;;;;5027055;28;20041;-71
2023/01/25 03:42:52;;;;;;;1.80;1.08;;;;;;;;;;5028082;28;20297;-63
2023/01/25 03:45:17;;;;;;;1.95;1.30;;;;;;;;;;5046379;28;20060;-70
2023/01/25 03:47:42;;;;;;;1.95;1.23;;;;;;;;;;5025375;28;20029;-71
2023/01/25 03:50:08;;;;;;;1.98;1.30;;;;;;;;;;5027925;28;20289;-70
2023/01/25 03:52:40;;;;;;;2.22;1.42;;;;;;;;;;5046758;28;20037;-67
2023/01/25 03:55:06;;;;;;;1.95;1.30;;;;;;;;;;5043164;28;20043;-71
2023/01/25 03:57:31;;;;;;;2.25;1.27;;;;;;;;;;5027490;28;20020;-67
2023/01/25 03:59:56;;;;;;;1.90;1.20;;;;;;;;;;5039735;28;20047;-64
2023/01/25 04:02:22;;;;;;;2.42;1.20;;;;;;;;;;5024878;28;20094;-71
2023/01/25 04:04:47;;;;;;;1.75;1.20;;;;;;;;;;5035832;28;20642;-68
2023/01/25 04:07:12;;;;;;;1.48;1.08;;;;;;;;;;5046019;28;20453;-70
2023/01/25 04:09:38;;;;;;;2.00;1.40;;;;;;;;;;5045579;28;20401;-72
2023/01/25 04:12:03;;;;;;;1.85;1.20;;;;;;;;;;5044451;28;20542;-71
2023/01/25 04:14:28;;;;;;;2.00;1.23;;;;;;;;;;5052341;28;20032;-63
2023/01/25 04:16:53;;;;;;;1.97;1.43;;;;;;;;;;5043788;28;20045;-69
2023/01/25 04:19:19;;;;;;;1.60;1.08;;;;;;;;;;5043438;28;20889;-64
2023/01/25 04:21:44;;;;;;;1.63;1.08;;;;;;;;;;5022106;28;20029;-59
2023/01/25 04:24:09;;;;;;;1.50;0.90;;;;;;;;;;5009786;28;20513;-70
2023/01/25 04:26:34;;;;;;;1.40;0.90;;;;;;;;;;5045048;28;20412;-68
2023/01/25 04:29:00;;;;;;;1.85;1.20;;;;;;;;;;5027662;28;20291;-71
2023/01/25 04:31:25;;;;;;;1.95;1.27;;;;;;;;;;5045879;28;20558;-67
2023/01/25 04:33:51;;;;;;;1.67;1.07;;;;;;;;;;5045395;28;20121;-69
2023/01/25 04:36:17;;;;;;;1.90;1.35;;;;;;;;;;5026849;28;20288;-65
2023/01/25 04:38:42;;;;;;;1.90;1.23;;;;;;;;;;5045252;28;20031;-64
2023/01/25 04:41:08;;;;;;;1.70;1.00;;;;;;;;;;5033893;28;20276;-71
2023/01/25 04:43:33;;;;;;;1.75;1.10;;;;;;;;;;4992018;28;21094;-68
2023/01/25 04:46:00;;;;;;;2.13;1.10;;;;;;;;;;5023705;28;20045;-69
2023/01/25 04:48:25;;;;;;;2.08;1.15;;;;;;;;;;5035138;28;20045;-67
2023/01/25 04:50:50;;;;;;;2.38;0.93;;;;;;;;;;5044465;28;20165;-68
2023/01/25 04:53:15;;;;;;;2.00;1.20;;;;;;;;;;5039142;28;20030;-67
2023/01/25 04:55:43;;;;;;;1.87;1.20;;;;;;;;;;5037403;28;20310;-65
2023/01/25 04:58:08;;;;;;;1.52;1.05;;;;;;;;;;5044130;28;20285;-68
2023/01/25 05:00:33;;;;;;;1.60;1.17;;;;;;;;;;4994538;28;20496;-71
2023/01/25 05:02:58;;;;;;;1.50;0.95;;;;;;;;;;5020835;28;20132;-69
2023/01/25 05:05:24;;;;;;;1.50;0.97;;;;;;;;;;5024790;28;20037;-63
2023/01/25 05:07:49;;;;;;;1.80;1.15;;;;;;;;;;5042135;28;20689;-68
2023/01/25 05:10:14;;;;;;;1.63;1.00;;;;;;;;;;5038026;28;20037;-65
2023/01/25 05:12:39;;;;;;;1.30;1.10;;;;;;;;;;5020859;28;20294;-68
2023/01/25 05:15:05;;;;;;;1.20;0.90;;;;;;;;;;5042555;28;20283;-68
2023/01/25 05:17:30;;;;;;;1.85;1.13;;;;;;;;;;5023270;28;20439;-68
2023/01/25 05:19:56;;;;;;;1.77;1.17;;;;;;;;;;5010561;28;20499;-64
2023/01/25 05:22:21;;;;;;;1.50;0.90;;;;;;;;;;5021127;28;20041;-70
2023/01/25 05:24:46;;;;;;;1.45;0.90;;;;;;;;;;5025700;28;20095;-69
2023/01/25 05:27:13;;;;;;;1.50;0.90;;;;;;;;;;5011997;28;20064;-70
2023/01/25 05:29:38;;;;;;;1.50;0.80;;;;;;;;;;5028194;28;20094;-69
2023/01/25 05:32:05;;;;;;;2.40;1.13;;;;;;;;;;5016588;28;20045;-67
2023/01/25 05:34:30;;;;;;;1.40;1.05;;;;;;;;;;5039248;28;20228;-69
2023/01/25 05:36:55;;;;;;;1.95;1.10;;;;;;;;;;5021358;28;20499;-67
2023/01/25 05:39:21;;;;;;;1.45;0.93;;;;;;;;;;5006030;28;20052;-64
2023/01/25 05:41:46;;;;;;;1.77;1.00;;;;;;;;;;5047036;28;20481;-69
2023/01/25 05:44:11;;;;;;;1.80;1.00;;;;;;;;;;5035327;28;20298;-64
2023/01/25 05:46:36;;;;;;;1.30;0.90;;;;;;;;;;5037202;28;20367;-73
2023/01/25 05:49:02;;;;;;;1.30;0.90;;;;;;;;;;5013044;28;20275;-71
2023/01/25 05:51:27;;;;;;;1.45;1.00;;;;;;;;;;5008641;28;20574;-76
2023/01/25 05:53:55;;;;;;;1.67;0.82;;;;;;;;;;5047055;28;20136;-73
2023/01/25 05:56:21;;;;;;;1.63;0.95;;;;;;;;;;5030630;28;20056;-69
2023/01/25 05:58:46;;;;;;;1.30;0.70;;;;;;;;;;5025395;28;20503;-71
2023/01/25 06:01:11;;;;;;;1.50;0.90;;;;;;;;;;5004431;28;20036;-72
2023/01/25 06:03:36;;;;;;;0.93;0.80;;;;;;;;;;5029754;28;20870;-67
2023/01/25 06:06:02;;;;;;;1.20;0.80;;;;;;;;;;5048928;28;20290;-76
2023/01/25 06:08:28;;;;;;;1.23;0.80;;;;;;;;;;5039076;28;20473;-71
2023/01/25 06:10:53;;;;;;;1.70;1.00;;;;;;;;;;5013702;28;20532;-71
2023/01/25 06:13:18;;;;;;;1.60;0.90;;;;;;;;;;5043259;28;20087;-72
2023/01/25 06:15:53;;;;;;;2.40;1.00;;;;;;;;;;5029849;28;20786;-67
2023/01/25 06:18:18;;;;;;;1.38;0.77;;;;;;;;;;5042264;28;20040;-72
2023/01/25 06:20:43;;;;;;;1.90;0.90;;;;;;;;;;5036983;28;20730;-68
2023/01/25 06:23:08;;;;;;;1.20;0.80;;;;;;;;;;5039000;28;20124;-66
2023/01/25 06:25:34;;;;;;;1.60;0.80;;;;;;;;;;5003247;28;20065;-76
2023/01/25 06:27:59;;;;;;;1.93;1.10;;;;;;;;;;5031065;28;20033;-67
2023/01/25 06:30:24;;;;;;;1.90;0.70;;;;;;;;;;5046089;28;20291;-70
2023/01/25 06:32:49;;;;;;;1.30;0.80;;;;;;;;;;5010531;28;20042;-69
2023/01/25 06:35:15;;;;;;;1.05;0.65;;;;;;;;;;5023087;28;20049;-69
2023/01/25 06:37:40;;;;;;;1.33;0.80;;;;;;;;;;4981490;28;20057;-67
2023/01/25 06:40:05;;;;;;;1.70;0.57;;;;;;;;;;5014021;28;20285;-70
2023/01/25 06:42:30;;;;;;;1.77;0.80;;;;;;;;;;4990942;28;20026;-74
2023/01/25 06:44:56;;;;;;;2.50;1.00;;;;;;;;;;5005869;28;20080;-74
2023/01/25 06:47:21;;;;;;;1.10;0.50;;;;;;;;;;5010703;28;20045;-64
2023/01/25 06:49:47;;;;;;;1.80;0.80;;;;;;;;;;5011134;28;20275;-66
2023/01/25 06:52:12;;;;;;;1.63;0.77;;;;;;;;;;5020358;28;20041;-72
2023/01/25 06:54:37;;;;;;;1.20;0.70;;;;;;;;;;4978950;28;20490;-74
2023/01/25 06:57:02;;;;;;;1.80;0.90;;;;;;;;;;5010852;28;20335;-71
2023/01/25 06:59:28;;;;;;;1.50;1.00;;;;;;;;;;5006805;28;20279;-68
2023/01/25 07:01:53;;;;;;;1.67;0.98;;;;;;;;;;4973328;28;20052;-72
2023/01/25 07:04:18;;;;;;;1.42;0.85;;;;;;;;;;4988958;28;20125;-71
2023/01/25 07:06:43;;;;;;;1.97;0.90;;;;;;;;;;5023092;28;20461;-70
2023/01/25 07:09:09;;;;;;;7.30;0.90;;;;;;;;;;4994532;28;20299;-68
2023/01/25 07:11:35;;;;;;;2.53;1.00;;;;;;;;;;5024147;28;20284;-73
2023/01/25 07:14:00;;;;;;;1.90;0.80;;;;;;;;;;5033476;28;20041;-74
2023/01/25 07:16:25;;;;;;;2.65;0.80;;;;;;;;;;5025998;28;20042;-70
2023/01/25 07:18:51;;;;;;;2.67;1.00;;;;;;;;;;5011572;28;20025;-67
2023/01/25 07:21:17;;;;;;;5.17;0.90;;;;;;;;;;5023566;28;20029;-71
2023/01/25 07:23:42;;;;;;;2.67;1.10;;;;;;;;;;4992462;28;20276;-73
2023/01/25 07:26:13;;;;;;;3.00;1.00;;;;;;;;;;5021132;28;20030;-73
2023/01/25 07:28:38;;;;;;;1.65;0.85;;;;;;;;;;5013437;28;20318;-75
2023/01/25 07:31:04;;;;;;;1.58;0.70;;;;;;;;;;5009739;28;20105;-70
2023/01/25 07:33:30;;;;;;;1.95;1.00;;;;;;;;;;5038663;28;20062;-71
2023/01/25 07:35:58;;;;;;;2.95;1.10;;;;;;;;;;5011192;28;20498;-68
2023/01/25 07:38:24;;;;;;;2.15;0.90;;;;;;;;;;5027308;28;20179;-67
2023/01/25 07:40:50;;;;;;;2.30;0.90;;;;;;;;;;5013317;28;20110;-72
2023/01/25 07:43:15;;;;;;;2.40;1.05;;;;;;;;;;5021789;28;20060;-69
2023/01/25 07:45:44;;;;;;;2.30;0.93;;;;;;;;;;5027623;28;20033;-71
2023/01/25 07:48:09;;;;;;;2.17;0.98;;;;;;;;;;5027266;28;20906;-65
2023/01/25 07:50:34;;;;;;;2.33;1.00;;;;;;;;;;5027832;28;20049;-69
2023/01/25 07:53:00;;;;;;;2.23;0.80;;;;;;;;;;5011565;28;20083;-72
2023/01/25 07:55:25;;;;;;;1.70;0.80;;;;;;;;;;5031346;28;20342;-69
2023/01/25 07:57:53;;;;;;;1.50;0.80;;;;;;;;;;5027184;28;21048;-66
2023/01/25 08:00:18;;;;;;;2.15;0.90;;;;;;;;;;5022360;28;20268;-74
2023/01/25 08:02:44;;;;;;;2.03;0.98;;;;;;;;;;5026073;28;20462;-72
2023/01/25 08:05:09;;;;;;;2.25;1.00;;;;;;;;;;5012316;28;20501;-69
2023/01/25 08:07:34;;;;;;;2.42;1.10;;;;;;;;;;5029145;28;20021;-70
2023/01/25 08:10:00;;;;;;;3.30;1.10;;;;;;;;;;5033754;28;20025;-73
2023/01/25 08:12:26;;;;;;;2.13;0.93;;;;;;;;;;5036882;28;20268;-74
2023/01/25 08:14:52;;;;;;;2.08;0.90;;;;;;;;;;5030239;28;20025;-71
2023/01/25 08:17:17;;;;;;;2.38;1.05;;;;;;;;;;5029110;28;20076;-74
2023/01/25 08:19:42;;;;;;;2.55;0.90;;;;;;;;;;5028400;28;20029;-71
2023/01/25 08:22:07;;;;;;;2.10;0.90;;;;;;;;;;5035774;28;20156;-66
2023/01/25 08:24:33;;;;;;;1.70;1.00;;;;;;;;;;5008947;28;20296;-68
2023/01/25 08:26:58;;;;;;;2.83;1.23;;;;;;;;;;5019623;28;20278;-73
2023/01/25 08:29:26;;;;;;;2.08;1.00;;;;;;;;;;5039759;28;20482;-73
2023/01/25 08:31:51;;;;;;;1.73;0.82;;;;;;;;;;5034013;28;20060;-71
2023/01/25 08:34:17;;;;;;;2.07;1.00;;;;;;;;;;5012820;28;20029;-71
2023/01/25 08:36:42;;;;;;;1.77;0.90;;;;;;;;;;5025667;28;20335;-72
2023/01/25 08:39:09;;;;;;;2.20;1.00;;;;;;;;;;5009152;28;20108;-71
2023/01/25 08:41:34;;;;;;;2.03;1.15;;;;;;;;;;5022124;28;20121;-70
2023/01/25 08:43:59;;;;;;;2.00;1.13;;;;;;;;;;5010243;28;20120;-62
2023/01/25 08:46:26;;;;;;;2.25;1.25;;;;;;;;;;4997151;28;20116;-67
2023/01/25 08:48:54;;;;;;;1.95;1.00;;;;;;;;;;5020627;28;20284;-73
2023/01/25 08:51:20;;;;;;;1.83;0.90;;;;;;;;;;5030011;28;20029;-71
2023/01/25 08:53:45;;;;;;;1.75;1.10;;;;;;;;;;5028652;28;20052;-68
2023/01/25 08:56:11;;;;;;;1.55;1.08;;;;;;;;;;5027314;28;20045;-64
2023/01/25 08:58:37;;;;;;;2.65;1.20;;;;;;;;;;5009454;28;20108;-73
2023/01/25 09:01:03;;;;;;;2.80;1.00;;;;;;;;;;5035592;28;20025;-71
2023/01/25 09:03:28;;;;;;;1.75;1.00;;;;;;;;;;5030367;28;20092;-74
2023/01/25 09:05:53;;;;;;;2.15;1.20;;;;;;;;;;5018091;28;20052;-71
2023/01/25 09:08:18;;;;;;;1.83;1.05;;;;;;;;;;5025151;28;20022;-74
2023/01/25 09:10:44;;;;;;;1.93;1.20;;;;;;;;;;5018007;28;20084;-70
2023/01/25 09:13:09;;;;;;;1.97;1.10;;;;;;;;;;5011306;28;20272;-65
2023/01/25 09:15:34;;;;;;;2.38;1.42;;;;;;;;;;5028374;28;20299;-65
2023/01/25 09:18:00;;;;;;;2.08;1.27;;;;;;;;;;5032452;28;20040;-71
2023/01/25 09:20:25;;;;;;;1.65;0.90;;;;;;;;;;5026354;28;20404;-73
2023/01/25 09:22:51;;;;;;;2.38;1.02;;;;;;;;;;5027384;28;20453;-72
2023/01/25 09:25:16;;;;;;;2.15;1.00;;;;;;;;;;5026322;28;20124;-70
2023/01/25 09:27:41;;;;;;;1.97;1.00;;;;;;;;;;5025184;28;20100;-72
2023/01/25 09:30:07;;;;;;;2.22;1.05;;;;;;;;;;5036850;28;20356;-70
2023/01/25 09:32:32;;;;;;;2.53;1.20;;;;;;;;;;5020933;28;20520;-62
2023/01/25 09:34:58;;;;;;;1.80;1.05;;;;;;;;;;5014102;28;20026;-73
2023/01/25 09:37:23;;;;;;;2.20;1.27;;;;;;;;;;5004613;28;20042;-72
2023/01/25 09:39:48;;;;;;;1.87;1.27;;;;;;;;;;4988394;28;20285;-73
2023/01/25 09:42:17;;;;;;;2.37;1.40;;;;;;;;;;5006544;28;21043;-73
2023/01/25 09:44:58;;;;;;;2.13;1.52;;;;;;;;;;5006892;28;20366;-71
2023/01/25 09:47:23;;;;;;;2.83;1.20;;;;;;;;;;5006620;28;20030;-74
2023/01/25 09:49:55;;;;;;;2.50;1.10;;;;;;;;;;5006607;28;20037;-73
2023/01/25 09:52:29;;;;;;;2.00;1.30;;;;;;;;;;5004675;28;20034;-71
2023/01/25 09:54:55;;;;;;;2.92;1.38;;;;;;;;;;5015071;28;20017;-71
2023/01/25 09:57:21;;;;;;;1.60;1.10;;;;;;;;;;5025481;28;20036;-70
2023/01/25 09:59:47;;;;;;;2.33;1.25;;;;;;;;;;5024183;28;20248;-72
2023/01/25 10:02:31;;;;;;;2.38;1.42;;;;;;;;;;5007716;28;20461;-75
2023/01/25 10:04:58;;;;;;;1.83;1.25;;;;;;;;;;5023702;28;20033;-72
2023/01/25 10:07:28;;;;;;;2.00;1.30;;;;;;;;;;5020409;28;20106;-69
2023/01/25 10:09:56;;;;;;;2.90;1.45;;;;;;;;;;5019177;28;20083;-71
2023/01/25 10:12:22;;;;;;;2.03;1.20;;;;;;;;;;5024355;28;20025;-75
2023/01/25 10:14:47;;;;;;;2.20;1.25;;;;;;;;;;5007584;28;20075;-68
2023/01/25 10:17:16;;;;;;;2.75;1.50;;;;;;;;;;5027069;28;20034;-74
2023/01/25 10:20:00;;;;;;;3.42;1.55;;;;;;;;;;5010614;28;20032;-74
2023/01/25 10:22:29;;;;;;;2.28;1.10;;;;;;;;;;5028471;28;20083;-70
2023/01/25 10:25:00;;;;;;;2.40;1.30;;;;;;;;;;5027162;28;20025;-66
2023/01/25 10:27:44;;;;;;;1.58;1.10;;;;;;;;;;5027384;28;20081;-77
2023/01/25 10:30:18;;;;;;;2.72;1.30;;;;;;;;;;5026488;28;20029;-63
2023/01/25 10:32:44;;;;;;;2.17;1.40;;;;;;;;;;5040068;28;20061;-67
2023/01/25 10:35:16;;;;;;;2.30;1.23;;;;;;;;;;5026812;28;20427;-69
2023/01/25 10:37:41;;;;;;;2.90;1.52;;;;;;;;;;5045547;28;20400;-72
2023/01/25 10:40:23;;;;;;;2.30;1.40;;;;;;;;;;5030859;28;20037;-74
2023/01/25 10:43:10;;;;;;;2.17;1.38;;;;;;;;;;5048716;28;20336;-75
2023/01/25 10:45:37;;;;;;;1.83;1.20;;;;;;;;;;5047924;28;20029;-72
2023/01/25 10:48:10;;;;;;;2.50;1.20;;;;;;;;;;5030097;28;20001;-72
2023/01/25 10:50:40;;;;;;;2.40;1.40;;;;;;;;;;5029736;28;20368;-73
2023/01/25 10:53:15;;;;;;;2.33;1.20;;;;;;;;;;5048086;28;20029;-72
2023/01/25 10:55:43;;;;;;;2.28;1.38;;;;;;;;;;5030139;28;20079;-72
2023/01/25 10:58:27;;;;;;;1.85;1.52;;;;;;;;;;5030203;28;20480;-76
2023/01/25 11:00:53;;;;;;;2.28;1.38;;;;;;;;;;5030288;28;20025;-74
2023/01/25 11:03:18;;;;;;;2.00;1.35;;;;;;;;;;5030191;28;20135;-72
2023/01/25 11:05:45;;;;;;;2.30;1.45;;;;;;;;;;5029754;28;20167;-67
2023/01/25 11:08:21;;;;;;;2.85;1.50;;;;;;;;;;5029986;28;20025;-72
2023/01/25 11:10:46;;;;;;;2.13;1.40;;;;;;;;;;5030072;28;20032;-74
2023/01/25 11:13:14;;;;;;;2.88;1.60;;;;;;;;;;5030100;28;20033;-72
2023/01/25 11:15:53;;;;;;;2.03;1.27;;;;;;;;;;5047607;28;20045;-72
2023/01/25 11:18:20;;;;;;;2.47;1.60;;;;;;;;;;5029796;28;20033;-67
2023/01/25 11:20:45;;;;;;;2.78;1.40;;;;;;;;;;5013372;28;20263;-68
2023/01/25 11:23:20;;;;;;;1.88;1.35;;;;;;;;;;5029833;28;20025;-76
2023/01/25 11:25:45;;;;;;;2.35;1.30;;;;;;;;;;5017836;28;20033;-66
2023/01/25 11:28:21;;;;;;;2.47;1.30;;;;;;;;;;5028792;28;20441;-70
2023/01/25 11:30:47;;;;;;;2.65;1.58;;;;;;;;;;5029956;28;20514;-71
2023/01/25 11:33:13;;;;;;;2.47;1.30;;;;;;;;;;5047078;28;20044;-67
2023/01/25 11:35:58;;;;;;;2.00;1.40;;;;;;;;;;5047274;28;20032;-69
2023/01/25 11:38:23;;;;;;;2.25;1.30;;;;;;;;;;5021841;28;20044;-64
2023/01/25 11:40:49;;;;;;;2.00;1.20;;;;;;;;;;5029034;28;20420;-74
2023/01/25 11:43:17;;;;;;;2.72;1.40;;;;;;;;;;5023923;28;20097;-69
2023/01/25 11:45:46;;;;;;;2.03;1.45;;;;;;;;;;5039784;28;20033;-73
2023/01/25 11:48:16;;;;;;;2.25;1.50;;;;;;;;;;5047226;28;20102;-74
2023/01/25 11:50:54;;;;;;;2.08;1.40;;;;;;;;;;5012394;28;20051;-70
2023/01/25 11:53:33;;;;;;;2.13;1.48;;;;;;;;;;5046691;28;20143;-64
2023/01/25 11:56:17;;;;;;;2.60;1.40;;;;;;;;;;5028949;28;20045;-72
2023/01/25 11:58:42;;;;;;;3.47;1.52;;;;;;;;;;5028033;28;20780;-72
2023/01/25 12:01:26;;;;;;;2.55;1.50;;;;;;;;;;5046665;28;20112;-72
2023/01/25 12:04:10;;;;;;;1.60;1.20;;;;;;;;;;5022327;28;20402;-64
2023/01/25 12:06:54;;;;;;;2.72;1.60;;;;;;;;;;5028398;28;20040;-65
2023/01/25 12:09:38;;;;;;;2.63;1.70;;;;;;;;;;5017589;28;20496;-65
2023/01/25 12:12:22;;;;;;;2.20;1.30;;;;;;;;;;5019378;28;20036;-69
2023/01/25 12:15:01;;;;;;;2.47;1.38;;;;;;;;;;5022034;28;20033;-68
2023/01/25 12:17:29;;;;;;;2.75;1.55;;;;;;;;;;5016100;28;20041;-72
2023/01/25 12:19:54;;;;;;;2.75;1.60;;;;;;;;;;5028562;28;20469;-67
2023/01/25 12:22:49;;;;;;;2.33;1.42;;;;;;;;;;5045438;28;20047;-71
2023/01/25 12:25:14;;;;;;;2.72;1.58;;;;;;;;;;5026403;28;20033;-69
2023/01/25 12:28:03;;;;;;;2.17;1.73;;;;;;;;;;5046216;28;20616;-71
2023/01/25 12:30:40;;;;;;;1.90;1.35;;;;;;;;;;5026110;28;20104;-74
2023/01/25 12:33:18;;;;;;;2.42;1.60;;;;;;;;;;5026384;28;20535;-74
2023/01/25 12:36:12;;;;;;;2.28;1.38;;;;;;;;;;5047012;28;20048;-68
2023/01/25 12:38:43;;;;;;;2.35;1.42;;;;;;;;;;5026085;28;20032;-69
2023/01/25 12:41:17;;;;;;;2.38;1.50;;;;;;;;;;5045461;28;20037;-71
2023/01/25 12:43:48;;;;;;;2.63;1.48;;;;;;;;;;5019246;28;20030;-75
2023/01/25 12:46:15;;;;;;;2.25;1.35;;;;;;;;;;5040884;28;20124;-73
2023/01/25 12:48:42;;;;;;;2.47;1.42;;;;;;;;;;5046064;28;20056;-71
2023/01/25 12:51:07;;;;;;;1.83;1.20;;;;;;;;;;5012083;28;20037;-71
2023/01/25 12:53:35;;;;;;;2.30;1.67;;;;;;;;;;5027685;28;20025;-64
2023/01/25 12:56:00;;;;;;;1.83;1.20;;;;;;;;;;5027944;28;20382;-70
2023/01/25 12:58:45;;;;;;;2.33;1.40;;;;;;;;;;5028188;28;20095;-71
2023/01/25 13:01:14;;;;;;;2.08;1.40;;;;;;;;;;5046223;28;20706;-73
2023/01/25 13:03:49;;;;;;;2.40;1.50;;;;;;;;;;5012245;28;20067;-65
2023/01/25 13:06:14;;;;;;;2.10;1.50;;;;;;;;;;5046841;28;20595;-66
2023/01/25 13:08:46;;;;;;;2.70;1.60;;;;;;;;;;5027477;28;20110;-70
2023/01/25 13:11:19;;;;;;;2.25;1.40;;;;;;;;;;5045952;28;20029;-72
2023/01/25 13:13:44;;;;;;;3.05;1.77;;;;;;;;;;5012113;28;20040;-63
2023/01/25 13:16:23;;;;;;;1.73;1.30;;;;;;;;;;5028384;28;20028;-66
2023/01/25 13:18:48;;;;;;;2.08;1.65;;;;;;;;;;5017323;28;20033;-69
2023/01/25 13:21:32;;;;;;;2.40;1.60;;;;;;;;;;5046186;28;20040;-66
2023/01/25 13:24:13;;;;;;;2.00;1.42;;;;;;;;;;5045344;28;20703;-68
2023/01/25 13:26:46;;;;;;;2.55;1.45;;;;;;;;;;5045578;28;20043;-72
2023/01/25 13:29:30;;;;;;;2.08;1.15;;;;;;;;;;5011148;28;20041;-73
2023/01/25 13:31:55;;;;;;;2.08;1.40;;;;;;;;;;5026997;28;20087;-69
2023/01/25 13:34:39;;;;;;;2.25;1.45;;;;;;;;;;5044832;28;20123;-72
2023/01/25 13:37:23;;;;;;;2.17;1.40;;;;;;;;;;5045019;28;20059;-66
2023/01/25 13:39:48;;;;;;;1.98;1.40;;;;;;;;;;5026821;28;20030;-71
2023/01/25 13:42:35;;;;;;;2.58;1.85;;;;;;;;;;5045309;28;20033;-71
2023/01/25 13:45:01;;;;;;;1.98;1.40;;;;;;;;;;5027214;28;20128;-70
2023/01/25 13:47:31;;;;;;;2.63;1.50;;;;;;;;;;5026975;28;20028;-72
2023/01/25 13:50:01;;;;;;;2.08;1.42;;;;;;;;;;5010501;28;20424;-69
2023/01/25 13:52:26;;;;;;;;;;;;;;;;;;5029518;28;20102;-73
2023/01/25 13:54:56;;;;;;;2.28;1.38;;;;;;;;;;5049333;28;19909;-68
2023/01/25 13:57:22;;;;;;;2.58;1.60;;;;;;;;;;5048912;28;20057;-71
2023/01/25 13:59:47;;;;;;;3.00;1.67;;;;;;;;;;5030585;28;20021;-72
2023/01/25 14:02:15;;;;;;;2.47;1.48;;;;;;;;;;5049536;28;20028;-73
2023/01/25 14:04:41;;;;;;;2.13;1.45;;;;;;;;;;5031595;28;20052;-70
2023/01/25 14:07:10;;;;;;;3.25;1.65;;;;;;;;;;5030925;28;20075;-69
2023/01/25 14:09:35;;;;;;;1.98;1.42;;;;;;;;;;5027262;28;20341;-73
2023/01/25 14:12:01;;;;;;;2.40;1.70;;;;;;;;;;5026817;28;20112;-72
2023/01/25 14:14:33;;;;;;;2.38;1.50;;;;;;;;;;5030615;28;20303;-71
2023/01/25 14:17:16;;;;;;;1.73;1.20;;;;;;;;;;5017260;28;20134;-68
2023/01/25 14:19:45;;;;;;;2.20;1.35;;;;;;;;;;5030444;28;20045;-73
2023/01/25 14:22:13;;;;;;;2.42;1.30;;;;;;;;;;5049284;28;20040;-70
2023/01/25 14:24:38;;;;;;;2.67;1.80;;;;;;;;;;5030164;28;20037;-74
2023/01/25 14:27:04;;;;;;;2.53;1.52;;;;;;;;;;5030307;28;20041;-72
2023/01/25 14:29:29;;;;;;;1.80;1.48;;;;;;;;;;5030576;28;20041;-66
2023/01/25 14:31:55;;;;;;;2.80;1.60;;;;;;;;;;5030443;28;20036;-71
2023/01/25 14:34:20;;;;;;;1.95;1.30;;;;;;;;;;5005715;28;20138;-67
2023/01/25 14:36:46;;;;;;;2.42;1.77;;;;;;;;;;5029704;28;20496;-71
2023/01/25 14:39:22;;;;;;;1.85;1.45;;;;;;;;;;5030418;28;20049;-69
2023/01/25 14:41:51;;;;;;;2.25;1.45;;;;;;;;;;5030640;28;20036;-71
2023/01/25 14:44:16;;;;;;;2.33;1.30;;;;;;;;;;5030801;28;20565;-72
2023/01/25 14:46:41;;;;;;;2.20;1.60;;;;;;;;;;5046566;28;20112;-75